Time;durP1;ratioP1;P1;durP2;ratioP2;P2;SDS_P1;SDS_P2;PMS_P1;PMS_P2;Temp;Humidity;BMP_temperature;BMP_pressure;BME280_temperature;BME280_humidity;BME280_pressure;Samples;Min_cycle;Max_cycle;Signal;HPM_P1;HPM_P2
2022/06/05 00:00:36;;;;;;;10.13;7.67;;;;;;;;;;4965252;28;20195;-82
2022/06/05 00:04:11;;;;;;;8.13;7.43;;;;;;;;;;4955087;28;20226;-82
2022/06/05 00:07:27;;;;;;;8.13;7.37;;;;;;;;;;4969834;28;20186;-83
2022/06/05 00:10:42;;;;;;;8.57;7.47;;;;;;;;;;4968726;28;20195;-83
2022/06/05 00:13:51;;;;;;;14.60;7.90;;;;;;;;;;4945335;29;20215;-83
2022/06/05 00:16:55;;;;;;;7.50;6.80;;;;;;;;;;4959882;28;20571;-82
2022/06/05 00:19:59;;;;;;;8.20;7.40;;;;;;;;;;4983973;28;20182;-84
2022/06/05 00:23:04;;;;;;;7.57;6.67;;;;;;;;;;5006801;23;20237;-84
2022/06/05 00:26:31;;;;;;;10.03;7.40;;;;;;;;;;4983934;28;20198;-83
2022/06/05 00:30:02;;;;;;;8.23;7.53;;;;;;;;;;4964207;28;20196;-84
2022/06/05 00:33:10;;;;;;;9.27;7.30;;;;;;;;;;4953062;28;20685;-84
2022/06/05 00:36:56;;;;;;;9.87;6.80;;;;;;;;;;4964432;28;20630;-83
2022/06/05 00:40:07;;;;;;;7.07;6.47;;;;;;;;;;4985973;28;20187;-84
2022/06/05 00:43:14;;;;;;;7.30;6.70;;;;;;;;;;4974711;28;20230;-83
2022/06/05 00:46:18;;;;;;;9.97;7.03;;;;;;;;;;4984421;28;20197;-83
2022/06/05 00:49:28;;;;;;;13.73;7.07;;;;;;;;;;5013934;28;20182;-84
2022/06/05 00:52:36;;;;;;;8.17;6.37;;;;;;;;;;5013936;28;20188;-83
2022/06/05 00:55:49;;;;;;;8.40;6.77;;;;;;;;;;4983575;28;20189;-84
2022/06/05 00:58:53;;;;;;;16.37;6.27;;;;;;;;;;4994520;28;20190;-84
2022/06/05 01:01:57;;;;;;;7.63;6.93;;;;;;;;;;4971710;28;20204;-83
2022/06/05 01:05:02;;;;;;;7.90;7.17;;;;;;;;;;4963489;28;20186;-84
2022/06/05 01:08:09;;;;;;;10.77;7.07;;;;;;;;;;4952318;28;20202;-83
2022/06/05 01:11:48;;;;;;;9.40;7.43;;;;;;;;;;4974536;28;20196;-83
2022/06/05 01:15:11;;;;;;;8.40;7.27;;;;;;;;;;4963349;28;20218;-84
2022/06/05 01:18:37;;;;;;;12.87;7.90;;;;;;;;;;4963884;28;20187;-84
2022/06/05 01:22:08;;;;;;;10.40;7.20;;;;;;;;;;4985703;28;20679;-84
2022/06/05 01:25:30;;;;;;;7.97;7.27;;;;;;;;;;4991283;28;20166;-84
2022/06/05 01:28:43;;;;;;;8.07;7.33;;;;;;;;;;5002333;28;20624;-84
2022/06/05 01:31:54;;;;;;;9.80;7.80;;;;;;;;;;4970775;28;20190;-84
2022/06/05 01:35:17;;;;;;;9.53;7.63;;;;;;;;;;4952343;28;20187;-84
2022/06/05 01:38:47;;;;;;;10.80;7.77;;;;;;;;;;4974978;28;20179;-82
2022/06/05 01:42:00;;;;;;;10.63;8.00;;;;;;;;;;5002154;28;20189;-84
2022/06/05 01:45:10;;;;;;;10.57;7.20;;;;;;;;;;4990936;28;20181;-84
2022/06/05 01:48:26;;;;;;;10.70;7.63;;;;;;;;;;5001557;28;20260;-84
2022/06/05 01:51:34;;;;;;;10.40;7.27;;;;;;;;;;4951949;28;20195;-84
2022/06/05 01:54:47;;;;;;;11.73;7.60;;;;;;;;;;4962604;28;20255;-84
2022/06/05 01:57:54;;;;;;;9.40;8.50;;;;;;;;;;4987873;28;20202;-83
2022/06/05 02:01:02;;;;;;;12.00;9.03;;;;;;;;;;5003189;28;20186;-83
2022/06/05 02:04:20;;;;;;;10.60;9.00;;;;;;;;;;4997913;28;20305;-83
2022/06/05 02:07:36;;;;;;;9.57;8.63;;;;;;;;;;5001774;28;20197;-83
2022/06/05 02:10:47;;;;;;;10.57;8.67;;;;;;;;;;5000767;28;20194;-84
2022/06/05 02:13:54;;;;;;;10.97;7.67;;;;;;;;;;4982315;28;20214;-83
2022/06/05 02:16:59;;;;;;;9.47;8.67;;;;;;;;;;4970940;28;20656;-83
2022/06/05 02:20:07;;;;;;;14.07;8.97;;;;;;;;;;4987755;28;20198;-83
2022/06/05 02:23:16;;;;;;;13.27;9.43;;;;;;;;;;5001135;28;20229;-83
2022/06/05 02:26:20;;;;;;;10.47;9.40;;;;;;;;;;5001457;28;20197;-84
2022/06/05 02:29:25;;;;;;;10.77;9.50;;;;;;;;;;5000503;28;20544;-82
2022/06/05 02:32:49;;;;;;;10.93;9.93;;;;;;;;;;4973704;28;20194;-84
2022/06/05 02:36:14;;;;;;;11.00;9.93;;;;;;;;;;4964609;28;20198;-84
2022/06/05 02:39:21;;;;;;;11.00;9.90;;;;;;;;;;4966010;28;20194;-83
2022/06/05 02:42:31;;;;;;;11.60;9.90;;;;;;;;;;4985430;28;20201;-83
2022/06/05 02:45:41;;;;;;;10.20;9.30;;;;;;;;;;4985113;28;20210;-84
2022/06/05 02:49:27;;;;;;;11.67;10.07;;;;;;;;;;4985382;28;20190;-84
2022/06/05 02:52:32;;;;;;;10.83;9.60;;;;;;;;;;4974465;28;20210;-83
2022/06/05 02:55:37;;;;;;;11.33;10.10;;;;;;;;;;4955306;28;20182;-84
2022/06/05 02:58:41;;;;;;;11.30;10.10;;;;;;;;;;4954803;28;20190;-84
2022/06/05 03:05:08;;;;;;;12.40;10.73;;;;;;;;;;5004826;28;20210;-82
2022/06/05 03:08:14;;;;;;;10.50;9.50;;;;;;;;;;4993338;28;20193;-82
2022/06/05 03:11:19;;;;;;;10.90;9.80;;;;;;;;;;4990623;28;20197;-83
2022/06/05 03:14:23;;;;;;;10.97;9.87;;;;;;;;;;4996952;28;20226;-82
2022/06/05 03:17:29;;;;;;;11.37;10.30;;;;;;;;;;4985842;28;20190;-83
2022/06/05 03:20:33;;;;;;;11.50;10.47;;;;;;;;;;5004573;28;20196;-83
2022/06/05 03:23:37;;;;;;;11.43;10.33;;;;;;;;;;4992967;28;20714;-84
2022/06/05 03:26:42;;;;;;;14.63;11.60;;;;;;;;;;4993306;28;20232;-84
2022/06/05 03:29:46;;;;;;;12.20;10.50;;;;;;;;;;4976137;28;20190;-82
2022/06/05 03:32:50;;;;;;;14.93;10.20;;;;;;;;;;4983198;28;20553;-83
2022/06/05 03:35:54;;;;;;;12.70;11.03;;;;;;;;;;4996213;28;20189;-83
2022/06/05 03:38:58;;;;;;;12.30;11.00;;;;;;;;;;4997090;28;20200;-84
2022/06/05 03:42:03;;;;;;;11.23;10.13;;;;;;;;;;5004254;28;20208;-83
2022/06/05 03:45:12;;;;;;;13.10;11.80;;;;;;;;;;5004132;28;20213;-82
2022/06/05 03:48:16;;;;;;;12.40;11.13;;;;;;;;;;4991322;28;20205;-82
2022/06/05 03:51:22;;;;;;;12.13;10.93;;;;;;;;;;4984428;28;20193;-82
2022/06/05 03:54:26;;;;;;;12.13;9.97;;;;;;;;;;5004393;28;20224;-83
2022/06/05 03:57:31;;;;;;;11.73;10.53;;;;;;;;;;4992710;28;20185;-82
2022/06/05 04:00:35;;;;;;;11.00;10.00;;;;;;;;;;5015292;28;20188;-82
2022/06/05 04:03:39;;;;;;;12.63;10.70;;;;;;;;;;5012837;28;20248;-83
2022/06/05 04:06:43;;;;;;;10.87;9.70;;;;;;;;;;4984062;28;20215;-83
2022/06/05 04:09:47;;;;;;;14.40;9.97;;;;;;;;;;4973174;28;20208;-82
2022/06/05 04:12:52;;;;;;;12.27;9.40;;;;;;;;;;5007714;28;20221;-82
2022/06/05 04:15:57;;;;;;;10.97;9.83;;;;;;;;;;5003605;28;20185;-83
2022/06/05 04:19:02;;;;;;;14.37;9.93;;;;;;;;;;4992585;28;20624;-84
2022/06/05 04:22:06;;;;;;;11.70;10.40;;;;;;;;;;4996617;28;20207;-83
2022/06/05 04:25:13;;;;;;;10.57;9.13;;;;;;;;;;4972540;28;20573;-82
2022/06/05 04:28:17;;;;;;;11.53;10.43;;;;;;;;;;4994894;28;20178;-82
2022/06/05 04:31:25;;;;;;;10.67;9.70;;;;;;;;;;5011251;28;20204;-82
2022/06/05 04:34:29;;;;;;;12.53;10.10;;;;;;;;;;5014272;28;20578;-82
2022/06/05 04:37:34;;;;;;;11.23;10.13;;;;;;;;;;5014185;28;20192;-82
2022/06/05 04:40:37;;;;;;;11.03;10.00;;;;;;;;;;4992251;28;20201;-84
2022/06/05 04:43:42;;;;;;;10.73;9.03;;;;;;;;;;4972235;28;20232;-83
2022/06/05 04:46:46;;;;;;;11.80;9.10;;;;;;;;;;4994538;28;20182;-83
2022/06/05 04:49:50;;;;;;;13.70;8.93;;;;;;;;;;4994401;28;20193;-84
2022/06/05 04:52:54;;;;;;;11.17;8.90;;;;;;;;;;4993248;28;20228;-82
2022/06/05 04:56:06;;;;;;;9.47;8.47;;;;;;;;;;4991557;28;20572;-83
2022/06/05 04:59:11;;;;;;;9.77;8.73;;;;;;;;;;5002253;28;20632;-82
2022/06/05 05:02:17;;;;;;;9.63;8.73;;;;;;;;;;4991294;28;20632;-83
2022/06/05 05:05:20;;;;;;;9.60;8.57;;;;;;;;;;4991412;28;20205;-83
2022/06/05 05:08:24;;;;;;;11.27;8.77;;;;;;;;;;4952325;28;20187;-82
2022/06/05 05:11:29;;;;;;;9.27;8.23;;;;;;;;;;4963494;28;20194;-82
2022/06/05 05:14:33;;;;;;;9.30;8.43;;;;;;;;;;4954632;28;20211;-82
2022/06/05 05:17:37;;;;;;;9.47;8.03;;;;;;;;;;4994121;28;20622;-82
2022/06/05 05:20:41;;;;;;;11.00;8.03;;;;;;;;;;4993443;28;20198;-83
2022/06/05 05:23:46;;;;;;;8.73;7.43;;;;;;;;;;4972046;28;20245;-83
2022/06/05 05:26:50;;;;;;;8.67;7.87;;;;;;;;;;4982649;28;20182;-82
2022/06/05 05:29:54;;;;;;;8.33;7.53;;;;;;;;;;4971319;28;20182;-82
2022/06/05 05:32:59;;;;;;;9.53;7.17;;;;;;;;;;4999552;28;20213;-83
2022/06/05 05:36:03;;;;;;;12.83;8.03;;;;;;;;;;5013186;28;20181;-83
2022/06/05 05:42:30;;;;;;;11.17;7.90;;;;;;;;;;5001813;28;20178;-83
2022/06/05 05:45:34;;;;;;;7.93;7.20;;;;;;;;;;5001413;28;20597;-82
2022/06/05 05:48:39;;;;;;;8.87;6.90;;;;;;;;;;4994130;28;20206;-82
2022/06/05 05:51:44;;;;;;;7.77;6.97;;;;;;;;;;4982546;28;20190;-82
2022/06/05 05:54:48;;;;;;;6.83;6.23;;;;;;;;;;4993300;28;20218;-82
2022/06/05 05:57:52;;;;;;;7.97;6.57;;;;;;;;;;4982294;28;20178;-83
2022/06/05 06:01:02;;;;;;;9.30;6.93;;;;;;;;;;4962164;28;20187;-82
2022/06/05 06:04:06;;;;;;;10.13;6.57;;;;;;;;;;4952774;28;20222;-82
2022/06/05 06:07:11;;;;;;;10.83;6.53;;;;;;;;;;4962757;28;20194;-82
2022/06/05 06:10:16;;;;;;;6.40;5.90;;;;;;;;;;4977862;28;20197;-82
2022/06/05 06:13:20;;;;;;;7.13;6.33;;;;;;;;;;5000741;28;20216;-83
2022/06/05 06:16:26;;;;;;;9.73;6.63;;;;;;;;;;4993650;28;20190;-83
2022/06/05 06:19:30;;;;;;;6.97;6.37;;;;;;;;;;5005637;28;20181;-82
2022/06/05 06:22:35;;;;;;;7.33;6.67;;;;;;;;;;5001634;28;20210;-83
2022/06/05 06:25:40;;;;;;;7.13;6.43;;;;;;;;;;5012176;23;20239;-77
2022/06/05 06:28:45;;;;;;;8.57;6.80;;;;;;;;;;4978524;28;20206;-77
2022/06/05 06:31:49;;;;;;;7.07;6.37;;;;;;;;;;4980060;28;20210;-77
2022/06/05 06:34:53;;;;;;;7.10;6.40;;;;;;;;;;4979212;28;20183;-78
2022/06/05 06:37:57;;;;;;;8.57;6.87;;;;;;;;;;4982910;28;20644;-78
2022/06/05 06:41:09;;;;;;;9.40;6.90;;;;;;;;;;4984541;28;20226;-78
2022/06/05 06:44:14;;;;;;;8.43;6.90;;;;;;;;;;4983821;28;20187;-78
2022/06/05 06:47:19;;;;;;;7.40;6.70;;;;;;;;;;4982185;28;20195;-78
2022/06/05 06:50:23;;;;;;;7.33;6.60;;;;;;;;;;4986917;28;20198;-78
2022/06/05 06:53:29;;;;;;;8.83;7.10;;;;;;;;;;4990071;28;20641;-77
2022/06/05 06:56:34;;;;;;;7.27;6.50;;;;;;;;;;4976149;28;20198;-77
2022/06/05 06:59:38;;;;;;;6.97;6.27;;;;;;;;;;4981423;28;20206;-77
2022/06/05 07:02:43;;;;;;;7.67;6.83;;;;;;;;;;4991467;28;20218;-78
2022/06/05 07:05:47;;;;;;;7.27;6.60;;;;;;;;;;4991277;28;20218;-79
2022/06/05 07:08:52;;;;;;;8.13;6.50;;;;;;;;;;4993019;28;20617;-79
2022/06/05 07:11:56;;;;;;;8.13;7.43;;;;;;;;;;4992080;28;20218;-78
2022/06/05 07:15:00;;;;;;;9.70;7.67;;;;;;;;;;4981926;28;20187;-78
2022/06/05 07:18:06;;;;;;;8.80;7.20;;;;;;;;;;4975059;28;20195;-78
2022/06/05 07:21:14;;;;;;;7.50;6.70;;;;;;;;;;4962916;28;20219;-78
2022/06/05 07:24:18;;;;;;;8.37;6.80;;;;;;;;;;4973952;28;20180;-78
2022/06/05 07:27:23;;;;;;;8.37;6.27;;;;;;;;;;4978403;28;20654;-79
2022/06/05 07:30:27;;;;;;;7.00;6.40;;;;;;;;;;4963126;28;20184;-79
2022/06/05 07:33:33;;;;;;;8.40;7.60;;;;;;;;;;4950699;29;20681;-79
2022/06/05 07:36:38;;;;;;;7.97;6.73;;;;;;;;;;4950440;29;20184;-78
2022/06/05 07:39:43;;;;;;;10.80;8.30;;;;;;;;;;4976357;28;20190;-79
2022/06/05 07:42:47;;;;;;;9.60;8.70;;;;;;;;;;4976253;28;20221;-79
2022/06/05 07:45:51;;;;;;;13.07;8.63;;;;;;;;;;4976672;28;20206;-79
2022/06/05 07:48:55;;;;;;;12.97;7.87;;;;;;;;;;4976898;28;20190;-79
2022/06/05 07:55:22;;;;;;;10.03;9.13;;;;;;;;;;4969884;28;20527;-78
2022/06/05 07:58:26;;;;;;;9.33;8.47;;;;;;;;;;4977112;28;20183;-79
2022/06/05 08:01:30;;;;;;;9.63;8.63;;;;;;;;;;4976655;28;20218;-79
2022/06/05 08:04:35;;;;;;;9.47;7.50;;;;;;;;;;4958820;28;20183;-78
2022/06/05 08:07:39;;;;;;;11.13;8.70;;;;;;;;;;4970466;28;20199;-79
2022/06/05 08:10:43;;;;;;;9.90;8.90;;;;;;;;;;4978716;28;20227;-78
2022/06/05 08:13:47;;;;;;;10.93;9.17;;;;;;;;;;4989206;28;20534;-78
2022/06/05 08:16:52;;;;;;;11.43;9.40;;;;;;;;;;4968734;28;20176;-79
2022/06/05 08:19:58;;;;;;;10.57;9.57;;;;;;;;;;4968041;28;20206;-78
2022/06/05 08:23:02;;;;;;;11.13;10.07;;;;;;;;;;4963449;28;20198;-79
2022/06/05 08:26:06;;;;;;;12.50;11.13;;;;;;;;;;4978590;28;20225;-78
2022/06/05 08:29:11;;;;;;;12.90;11.70;;;;;;;;;;4980718;28;20194;-78
2022/06/05 08:32:16;;;;;;;12.67;11.47;;;;;;;;;;4978499;28;20725;-78
2022/06/05 08:35:21;;;;;;;13.10;11.80;;;;;;;;;;4988437;28;20214;-78
2022/06/05 08:42:19;;;;;;;12.00;10.73;;;;;;;;;;4977976;28;20229;-79
2022/06/05 08:45:30;;;;;;;12.33;11.13;;;;;;;;;;4977016;28;20727;-78
2022/06/05 08:48:47;;;;;;;16.10;12.23;;;;;;;;;;4979015;28;20206;-78
2022/06/05 08:52:11;;;;;;;16.40;13.03;;;;;;;;;;4975235;28;20234;-78
2022/06/05 08:55:27;;;;;;;15.53;12.80;;;;;;;;;;4975266;28;20182;-80
2022/06/05 08:58:35;;;;;;;15.50;13.90;;;;;;;;;;4976636;28;20657;-80
2022/06/05 09:02:02;;;;;;;17.00;14.20;;;;;;;;;;4988811;28;20241;-78
2022/06/05 09:05:13;;;;;;;15.73;14.17;;;;;;;;;;4989393;28;20214;-79
2022/06/05 09:08:20;;;;;;;15.07;13.63;;;;;;;;;;4978216;28;20210;-79
2022/06/05 09:11:30;;;;;;;13.10;11.80;;;;;;;;;;4980707;28;20298;-79
2022/06/05 09:14:40;;;;;;;13.47;12.27;;;;;;;;;;4982076;28;20198;-79
2022/06/05 09:17:52;;;;;;;13.47;12.17;;;;;;;;;;4979933;28;20676;-80
2022/06/05 09:20:59;;;;;;;14.37;12.87;;;;;;;;;;4980781;28;20237;-80
2022/06/05 09:24:08;;;;;;;13.80;12.50;;;;;;;;;;4970472;28;20206;-80
2022/06/05 09:27:18;;;;;;;14.43;13.13;;;;;;;;;;4980051;28;20201;-80
2022/06/05 09:30:31;;;;;;;14.10;12.70;;;;;;;;;;4988748;28;20202;-81
2022/06/05 09:33:39;;;;;;;14.83;13.33;;;;;;;;;;4993399;28;20201;-81
2022/06/05 09:37:01;;;;;;;15.50;13.07;;;;;;;;;;4982799;28;20191;-81
2022/06/05 09:40:36;;;;;;;13.53;12.23;;;;;;;;;;4982017;28;20679;-81
2022/06/05 09:43:54;;;;;;;14.87;13.47;;;;;;;;;;4980464;28;20187;-80
2022/06/05 09:47:08;;;;;;;14.70;13.30;;;;;;;;;;4977103;28;20558;-80
2022/06/05 09:50:22;;;;;;;13.83;12.50;;;;;;;;;;4984962;28;20285;-81
2022/06/05 09:53:39;;;;;;;15.63;14.20;;;;;;;;;;4983650;28;20203;-81
2022/06/05 10:00:32;;;;;;;11.40;10.40;;;;;;;;;;4967262;28;20205;-80
2022/06/05 10:03:39;;;;;;;12.60;10.57;;;;;;;;;;4981444;28;20195;-80
2022/06/05 10:06:54;;;;;;;10.80;9.65;;;;;;;;;;4980470;28;20223;-80
2022/06/05 10:10:06;;;;;;;11.40;10.30;;;;;;;;;;4979416;28;20206;-80
2022/06/05 10:13:22;;;;;;;10.88;9.82;;;;;;;;;;4978268;28;20563;-80
2022/06/05 10:16:38;;;;;;;10.02;9.13;;;;;;;;;;4992391;28;20674;-78
2022/06/05 10:20:01;;;;;;;11.27;9.07;;;;;;;;;;4979742;28;20676;-79
2022/06/05 10:23:19;;;;;;;9.82;8.93;;;;;;;;;;4989783;28;20665;-79
2022/06/05 10:26:28;;;;;;;8.50;7.80;;;;;;;;;;4978353;28;20226;-78
2022/06/05 10:29:37;;;;;;;8.15;7.45;;;;;;;;;;4989256;28;20194;-79
2022/06/05 10:32:58;;;;;;;7.65;7.05;;;;;;;;;;4976175;28;20226;-80
2022/06/05 10:36:13;;;;;;;7.90;7.28;;;;;;;;;;4975673;28;20179;-78
2022/06/05 10:39:55;;;;;;;7.55;6.85;;;;;;;;;;4984540;28;20191;-80
2022/06/05 10:43:09;;;;;;;7.38;6.75;;;;;;;;;;4973967;28;20200;-79
2022/06/05 10:46:26;;;;;;;8.48;6.75;;;;;;;;;;4973354;28;20207;-79
2022/06/05 10:49:43;;;;;;;7.18;6.50;;;;;;;;;;4952653;28;20198;-79
2022/06/05 10:53:12;;;;;;;7.57;6.85;;;;;;;;;;4972868;28;20215;-79
2022/06/05 10:56:29;;;;;;;5.85;5.35;;;;;;;;;;4974290;28;20197;-79
2022/06/05 11:00:00;;;;;;;7.10;6.40;;;;;;;;;;4979812;28;20183;-79
2022/06/05 11:03:22;;;;;;;8.32;6.82;;;;;;;;;;4990757;28;20193;-79
2022/06/05 11:06:54;;;;;;;7.47;6.72;;;;;;;;;;4979111;28;20218;-79
2022/06/05 11:13:39;;;;;;;7.57;6.22;;;;;;;;;;4980200;28;20212;-79
2022/06/05 11:14:20;;;;;;;7.45;6.75;;;;;;;;;;4970069;28;20195;-79
2022/06/05 11:17:48;;;;;;;7.22;6.53;;;;;;;;;;4991863;28;20200;-79
2022/06/05 11:20:57;;;;;;;7.75;7.13;;;;;;;;;;4992106;28;20229;-78
2022/06/05 11:24:07;;;;;;;7.22;6.30;;;;;;;;;;4981073;28;20183;-79
2022/06/05 11:27:18;;;;;;;8.32;6.80;;;;;;;;;;4980553;28;20678;-79
2022/06/05 11:30:42;;;;;;;9.57;6.93;;;;;;;;;;4981458;28;20210;-78
2022/06/05 11:33:55;;;;;;;6.60;5.90;;;;;;;;;;4981649;28;20183;-79
2022/06/05 11:37:12;;;;;;;7.30;6.70;;;;;;;;;;4977043;28;20193;-79
2022/06/05 11:40:34;;;;;;;6.70;6.10;;;;;;;;;;4978800;28;20183;-79
2022/06/05 11:43:41;;;;;;;7.28;6.68;;;;;;;;;;4965921;28;20193;-79
2022/06/05 11:46:53;;;;;;;6.75;6.15;;;;;;;;;;4977177;28;20206;-79
2022/06/05 11:50:24;;;;;;;8.85;6.22;;;;;;;;;;4980622;28;20197;-80
2022/06/05 11:53:40;;;;;;;6.70;5.55;;;;;;;;;;4983012;28;20185;-79
2022/06/05 11:57:07;;;;;;;6.13;5.60;;;;;;;;;;4981485;28;20181;-79
2022/06/05 12:00:16;;;;;;;6.90;6.30;;;;;;;;;;4981893;28;20195;-79
2022/06/05 12:03:38;;;;;;;6.05;5.47;;;;;;;;;;4980641;28;20187;-79
2022/06/05 12:06:55;;;;;;;6.88;6.07;;;;;;;;;;4989667;28;20213;-80
2022/06/05 12:10:06;;;;;;;6.80;6.10;;;;;;;;;;4981685;28;20206;-79
2022/06/05 12:13:34;;;;;;;6.60;6.00;;;;;;;;;;4980966;28;20209;-78
2022/06/05 12:16:56;;;;;;;5.95;5.40;;;;;;;;;;4961006;29;20183;-78
2022/06/05 12:20:12;;;;;;;6.45;5.85;;;;;;;;;;4979581;28;20189;-78
2022/06/05 12:23:36;;;;;;;7.25;5.90;;;;;;;;;;4980690;28;20200;-78
2022/06/05 12:37:05;;;;;;;9.32;6.13;;;;;;;;;;4932791;23;20228;-80
2022/06/05 12:40:23;;;;;;;7.97;5.93;;;;;;;;;;4996390;28;20179;-79
2022/06/05 12:43:47;;;;;;;8.48;6.30;;;;;;;;;;5023549;28;20191;-80
2022/06/05 12:47:16;;;;;;;6.38;5.78;;;;;;;;;;5010962;28;20181;-80
2022/06/05 12:50:35;;;;;;;7.25;6.10;;;;;;;;;;5013559;28;20184;-79
2022/06/05 12:53:48;;;;;;;7.68;6.05;;;;;;;;;;5002906;28;20191;-80
2022/06/05 12:56:57;;;;;;;13.27;6.32;;;;;;;;;;5025762;28;20217;-79
2022/06/05 13:00:29;;;;;;;6.82;6.15;;;;;;;;;;5026612;28;20210;-79
2022/06/05 13:03:56;;;;;;;6.32;5.60;;;;;;;;;;5009816;28;20186;-79
2022/06/05 13:07:10;;;;;;;6.63;5.75;;;;;;;;;;5006953;28;20196;-80
2022/06/05 13:10:34;;;;;;;6.72;5.40;;;;;;;;;;5004200;28;20546;-80
2022/06/05 13:14:02;;;;;;;8.30;5.97;;;;;;;;;;5010687;28;20193;-79
2022/06/05 13:17:06;;;;;;;8.23;6.13;;;;;;;;;;4998199;28;20215;-80
2022/06/05 13:20:37;;;;;;;11.55;6.00;;;;;;;;;;5007372;28;20523;-78
2022/06/05 13:24:19;;;;;;;6.50;5.43;;;;;;;;;;5019465;28;20210;-79
2022/06/05 13:27:56;;;;;;;6.85;6.10;;;;;;;;;;5003266;28;20193;-79
2022/06/05 13:31:07;;;;;;;7.15;6.45;;;;;;;;;;5020486;28;20225;-80
2022/06/05 13:34:27;;;;;;;7.55;6.95;;;;;;;;;;5017679;28;20187;-80
2022/06/05 13:38:13;;;;;;;7.85;7.18;;;;;;;;;;4978917;28;20683;-81
2022/06/05 13:41:29;;;;;;;7.18;6.53;;;;;;;;;;4992054;28;20231;-80
2022/06/05 13:44:34;;;;;;;7.88;7.03;;;;;;;;;;5005542;28;20193;-81
2022/06/05 13:47:46;;;;;;;8.02;7.22;;;;;;;;;;5004746;28;20200;-81
2022/06/05 13:51:00;;;;;;;8.45;6.80;;;;;;;;;;5017004;28;20225;-80
2022/06/05 13:54:18;;;;;;;7.82;7.22;;;;;;;;;;5001604;28;20192;-80
2022/06/05 13:57:53;;;;;;;8.07;7.38;;;;;;;;;;5013753;28;20214;-81
2022/06/05 14:01:03;;;;;;;7.88;7.18;;;;;;;;;;5005520;28;20223;-81
2022/06/05 14:04:13;;;;;;;9.02;7.63;;;;;;;;;;5009048;28;20193;-81
2022/06/05 14:07:19;;;;;;;8.10;7.32;;;;;;;;;;4999371;28;20196;-80
2022/06/05 14:10:30;;;;;;;11.55;8.00;;;;;;;;;;4999131;28;20189;-80
2022/06/05 14:13:44;;;;;;;9.95;7.82;;;;;;;;;;4999897;28;20542;-81
2022/06/05 14:16:51;;;;;;;8.27;7.57;;;;;;;;;;5010452;28;20214;-80
2022/06/05 14:20:00;;;;;;;8.77;7.95;;;;;;;;;;5001186;28;20187;-81
2022/06/05 14:23:07;;;;;;;8.25;7.40;;;;;;;;;;5014086;28;20443;-80
2022/06/05 14:26:12;;;;;;;10.13;7.55;;;;;;;;;;5000680;28;20186;-80
2022/06/05 14:29:21;;;;;;;9.18;8.13;;;;;;;;;;5003193;28;20195;-79
2022/06/05 14:32:30;;;;;;;9.50;8.40;;;;;;;;;;5012458;28;20224;-80
2022/06/05 14:35:37;;;;;;;8.63;7.83;;;;;;;;;;5014284;28;20197;-80
2022/06/05 14:38:44;;;;;;;9.07;8.37;;;;;;;;;;5012211;28;20669;-79
2022/06/05 14:42:18;;;;;;;8.60;7.80;;;;;;;;;;4990034;28;20223;-80
2022/06/05 14:45:31;;;;;;;9.47;8.57;;;;;;;;;;5000760;28;20184;-79
2022/06/05 14:48:42;;;;;;;9.90;8.77;;;;;;;;;;5001915;28;20186;-80
2022/06/05 14:52:00;;;;;;;12.27;9.67;;;;;;;;;;4977394;28;20217;-80
2022/06/05 14:58:44;;;;;;;12.17;10.90;;;;;;;;;;4999934;28;20685;-80
2022/06/05 15:02:01;;;;;;;11.60;10.37;;;;;;;;;;4990752;28;20238;-81
2022/06/05 15:05:23;;;;;;;13.57;10.40;;;;;;;;;;4974708;28;20196;-80
2022/06/05 15:08:53;;;;;;;11.40;10.30;;;;;;;;;;5005942;28;20259;-79
2022/06/05 15:12:13;;;;;;;15.10;12.07;;;;;;;;;;4993385;28;20236;-80
2022/06/05 15:15:22;;;;;;;12.30;11.17;;;;;;;;;;4999798;28;20189;-80
2022/06/05 15:18:27;;;;;;;11.80;10.70;;;;;;;;;;5009943;28;20209;-80
2022/06/05 15:21:31;;;;;;;10.57;9.13;;;;;;;;;;4989008;28;20233;-79
2022/06/05 15:24:45;;;;;;;16.83;10.80;;;;;;;;;;4996560;28;20206;-77
2022/06/05 15:28:05;;;;;;;20.43;11.70;;;;;;;;;;4985478;28;20185;-80
2022/06/05 15:31:31;;;;;;;18.97;11.30;;;;;;;;;;4985506;28;20225;-81
2022/06/05 15:34:55;;;;;;;18.20;11.23;;;;;;;;;;5007396;28;20204;-80
2022/06/05 15:38:14;;;;;;;16.47;11.90;;;;;;;;;;5005900;28;20232;-79
2022/06/05 15:41:25;;;;;;;12.83;11.53;;;;;;;;;;5015745;28;20240;-79
2022/06/05 15:44:45;;;;;;;9.17;8.00;;;;;;;;;;5005039;28;20652;-80
2022/06/05 15:48:08;;;;;;;7.87;6.73;;;;;;;;;;5010405;28;20173;-80
2022/06/05 15:51:45;;;;;;;5.93;4.90;;;;;;;;;;4995552;28;20217;-81
2022/06/05 15:55:01;;;;;;;8.80;4.50;;;;;;;;;;4992831;28;20197;-81
2022/06/05 15:58:24;;;;;;;6.10;4.27;;;;;;;;;;4995679;28;20569;-80
2022/06/05 16:01:36;;;;;;;9.70;4.67;;;;;;;;;;5010152;28;20225;-80
2022/06/05 16:04:41;;;;;;;7.50;3.50;;;;;;;;;;4980939;28;20194;-80
2022/06/05 16:07:48;;;;;;;6.40;3.50;;;;;;;;;;4994459;28;20201;-79
2022/06/05 16:11:00;;;;;;;4.67;2.70;;;;;;;;;;5003900;28;20222;-78
2022/06/05 16:14:07;;;;;;;4.43;2.53;;;;;;;;;;5004777;28;20186;-77
2022/06/05 16:17:17;;;;;;;6.53;2.80;;;;;;;;;;4994371;28;20206;-79
2022/06/05 16:20:41;;;;;;;10.47;2.90;;;;;;;;;;4991868;28;20202;-79
2022/06/05 16:24:11;;;;;;;4.20;2.50;;;;;;;;;;5017235;28;20739;-79
2022/06/05 16:27:23;;;;;;;5.33;2.37;;;;;;;;;;5002512;28;20517;-79
2022/06/05 16:30:33;;;;;;;4.37;2.20;;;;;;;;;;5022186;28;20193;-78
2022/06/05 16:33:37;;;;;;;5.33;2.40;;;;;;;;;;5009607;28;20537;-79
2022/06/05 16:40:32;;;;;;;4.63;2.40;;;;;;;;;;5020358;28;20530;-78
2022/06/05 16:43:38;;;;;;;6.47;2.50;;;;;;;;;;5014759;28;20547;-78
2022/06/05 16:46:43;;;;;;;3.03;2.00;;;;;;;;;;5012704;28;20206;-79
2022/06/05 16:49:47;;;;;;;4.07;2.10;;;;;;;;;;5002438;28;20202;-79
2022/06/05 16:52:51;;;;;;;5.77;2.13;;;;;;;;;;4989377;28;20189;-78
2022/06/05 16:56:20;;;;;;;7.17;2.03;;;;;;;;;;5001249;28;20178;-78
2022/06/05 16:59:31;;;;;;;6.73;1.93;;;;;;;;;;4989735;28;20185;-78
2022/06/05 17:02:47;;;;;;;8.30;2.67;;;;;;;;;;5005952;28;20225;-78
2022/06/05 17:06:30;;;;;;;5.23;2.10;;;;;;;;;;5001667;28;20650;-78
2022/06/05 17:09:34;;;;;;;5.43;2.20;;;;;;;;;;4982513;28;20185;-78
2022/06/05 17:12:50;;;;;;;5.67;1.90;;;;;;;;;;4991979;28;20216;-78
2022/06/05 17:15:56;;;;;;;9.30;2.43;;;;;;;;;;5001103;28;20201;-78
2022/06/05 17:19:31;;;;;;;4.93;2.03;;;;;;;;;;5013464;28;20217;-78
2022/06/05 17:22:45;;;;;;;4.00;1.70;;;;;;;;;;5018975;28;20225;-78
2022/06/05 17:26:05;;;;;;;4.70;2.00;;;;;;;;;;5025658;28;20194;-77
2022/06/05 17:29:15;;;;;;;7.27;2.00;;;;;;;;;;5000550;28;20179;-78
2022/06/05 17:32:37;;;;;;;5.23;2.13;;;;;;;;;;5011915;28;20217;-79
2022/06/05 17:36:20;;;;;;;5.53;2.00;;;;;;;;;;5019182;28;20186;-79
2022/06/05 17:39:42;;;;;;;7.07;2.20;;;;;;;;;;5031264;28;20202;-79
2022/06/05 17:42:58;;;;;;;3.57;1.90;;;;;;;;;;5004355;28;20222;-78
2022/06/05 17:46:06;;;;;;;2.90;2.10;;;;;;;;;;4985235;28;20626;-78
2022/06/05 17:49:28;;;;;;;3.33;1.80;;;;;;;;;;4985321;28;20178;-77
2022/06/05 17:52:34;;;;;;;5.03;2.17;;;;;;;;;;4991413;28;20225;-78
2022/06/05 17:55:38;;;;;;;5.37;2.37;;;;;;;;;;4999483;28;20657;-78
2022/06/05 17:58:45;;;;;;;4.53;2.70;;;;;;;;;;5003884;28;20669;-78
2022/06/05 18:01:49;;;;;;;5.40;2.30;;;;;;;;;;5001570;28;20561;-78
2022/06/05 18:04:56;;;;;;;4.83;2.03;;;;;;;;;;5005424;28;20198;-78
2022/06/05 18:08:17;;;;;;;4.00;2.17;;;;;;;;;;5001369;28;20182;-78
2022/06/05 18:11:23;;;;;;;3.40;1.90;;;;;;;;;;4997319;28;20217;-78
2022/06/05 18:14:31;;;;;;;7.30;2.23;;;;;;;;;;5009662;28;20174;-78
2022/06/05 18:17:39;;;;;;;5.47;1.90;;;;;;;;;;5005608;28;20182;-78
2022/06/05 18:20:53;;;;;;;6.10;2.10;;;;;;;;;;5014613;28;20186;-78
2022/06/05 18:23:57;;;;;;;4.03;2.40;;;;;;;;;;5002670;28;20194;-78
2022/06/05 18:27:26;;;;;;;5.07;1.93;;;;;;;;;;5028939;23;20550;-78
2022/06/05 18:30:40;;;;;;;5.17;2.07;;;;;;;;;;4979978;28;20560;-79
2022/06/05 18:33:58;;;;;;;6.97;2.27;;;;;;;;;;4966599;28;20206;-78
2022/06/05 18:40:44;;;;;;;4.07;2.07;;;;;;;;;;4950901;29;20218;-78
2022/06/05 18:43:48;;;;;;;6.33;2.23;;;;;;;;;;4963132;29;20184;-78
2022/06/05 18:46:54;;;;;;;5.70;2.27;;;;;;;;;;4949488;28;20195;-78
2022/06/05 18:49:58;;;;;;;5.77;2.70;;;;;;;;;;4961255;29;20199;-78
2022/06/05 18:53:15;;;;;;;4.47;2.23;;;;;;;;;;4962072;29;20188;-78
2022/06/05 18:56:35;;;;;;;4.97;2.30;;;;;;;;;;4963143;28;20199;-79
2022/06/05 18:59:46;;;;;;;6.50;2.63;;;;;;;;;;4975142;28;20223;-78
2022/06/05 19:02:52;;;;;;;4.33;2.13;;;;;;;;;;4981656;28;20186;-78
2022/06/05 19:05:59;;;;;;;5.17;2.63;;;;;;;;;;4969647;28;20179;-78
2022/06/05 19:09:05;;;;;;;6.23;2.80;;;;;;;;;;4976146;28;20191;-78
2022/06/05 19:12:39;;;;;;;5.63;2.20;;;;;;;;;;4950838;29;20215;-78
2022/06/05 19:15:47;;;;;;;6.20;2.27;;;;;;;;;;4967575;28;20195;-79
2022/06/05 19:19:05;;;;;;;4.53;2.60;;;;;;;;;;4973853;28;20207;-79
2022/06/05 19:22:22;;;;;;;7.63;2.60;;;;;;;;;;4969168;28;20318;-79
2022/06/05 19:25:41;;;;;;;3.73;2.30;;;;;;;;;;4982387;28;20179;-79
2022/06/05 19:29:00;;;;;;;3.93;2.17;;;;;;;;;;4980853;28;20203;-78
2022/06/05 19:32:13;;;;;;;6.17;2.50;;;;;;;;;;4981277;28;20226;-78
2022/06/05 19:35:28;;;;;;;3.63;2.10;;;;;;;;;;4980027;28;20535;-78
2022/06/05 19:38:32;;;;;;;4.83;2.43;;;;;;;;;;4957322;28;20211;-78
2022/06/05 19:41:46;;;;;;;6.00;2.60;;;;;;;;;;4979928;28;20214;-78